sensor_id;sensor_type;location;lat;lon;timestamp;P1;durP1;ratioP1;P2;durP2;ratioP2
71496;SDS011;59317;53.218;5.730;2022-08-19T00:01:21;11.35;;;5.55;;
71496;SDS011;59317;53.218;5.730;2022-08-19T00:03:47;12.23;;;5.87;;
71496;SDS011;59317;53.218;5.730;2022-08-19T00:06:13;10.13;;;5.43;;
71496;SDS011;59317;53.218;5.730;2022-08-19T00:08:39;11.73;;;5.55;;
71496;SDS011;59317;53.218;5.730;2022-08-19T00:11:05;11.13;;;6.25;;
71496;SDS011;59317;53.218;5.730;2022-08-19T00:13:32;11.73;;;6.00;;
71496;SDS011;59317;53.218;5.730;2022-08-19T00:15:58;12.85;;;6.18;;
71496;SDS011;59317;53.218;5.730;2022-08-19T00:18:24;12.38;;;6.38;;
71496;SDS011;59317;53.218;5.730;2022-08-19T00:20:50;12.38;;;6.38;;
71496;SDS011;59317;53.218;5.730;2022-08-19T00:23:16;12.70;;;6.18;;
71496;SDS011;59317;53.218;5.730;2022-08-19T00:25:43;14.17;;;6.80;;
71496;SDS011;59317;53.218;5.730;2022-08-19T00:28:09;12.70;;;6.67;;
71496;SDS011;59317;53.218;5.730;2022-08-19T00:30:35;12.90;;;6.83;;
71496;SDS011;59317;53.218;5.730;2022-08-19T00:33:01;13.80;;;6.82;;
71496;SDS011;59317;53.218;5.730;2022-08-19T00:35:27;14.45;;;6.80;;
71496;SDS011;59317;53.218;5.730;2022-08-19T00:37:53;12.82;;;6.70;;
71496;SDS011;59317;53.218;5.730;2022-08-19T00:40:20;14.20;;;7.07;;
71496;SDS011;59317;53.218;5.730;2022-08-19T00:42:46;13.27;;;7.07;;
71496;SDS011;59317;53.218;5.730;2022-08-19T00:45:16;13.27;;;6.90;;
71496;SDS011;59317;53.218;5.730;2022-08-19T00:47:44;15.18;;;6.88;;
71496;SDS011;59317;53.218;5.730;2022-08-19T00:50:11;14.73;;;7.00;;
71496;SDS011;59317;53.218;5.730;2022-08-19T00:52:39;13.70;;;6.50;;
71496;SDS011;59317;53.218;5.730;2022-08-19T00:55:09;14.68;;;7.03;;
71496;SDS011;59317;53.218;5.730;2022-08-19T00:57:37;12.85;;;6.95;;
71496;SDS011;59317;53.218;5.730;2022-08-19T01:00:07;13.30;;;7.03;;
71496;SDS011;59317;53.218;5.730;2022-08-19T01:02:36;12.65;;;6.60;;
71496;SDS011;59317;53.218;5.730;2022-08-19T01:05:03;13.57;;;6.70;;
71496;SDS011;59317;53.218;5.730;2022-08-19T01:07:30;13.45;;;7.43;;
71496;SDS011;59317;53.218;5.730;2022-08-19T01:09:56;14.70;;;7.07;;
71496;SDS011;59317;53.218;5.730;2022-08-19T01:12:22;14.60;;;6.72;;
71496;SDS011;59317;53.218;5.730;2022-08-19T01:14:49;14.37;;;7.07;;
71496;SDS011;59317;53.218;5.730;2022-08-19T01:17:15;14.35;;;7.03;;
71496;SDS011;59317;53.218;5.730;2022-08-19T01:19:42;14.48;;;7.57;;
71496;SDS011;59317;53.218;5.730;2022-08-19T01:22:11;16.25;;;7.68;;
71496;SDS011;59317;53.218;5.730;2022-08-19T01:24:38;16.23;;;7.83;;
71496;SDS011;59317;53.218;5.730;2022-08-19T01:27:05;14.95;;;8.15;;
71496;SDS011;59317;53.218;5.730;2022-08-19T01:29:31;15.70;;;8.23;;
71496;SDS011;59317;53.218;5.730;2022-08-19T01:31:57;14.15;;;7.80;;
71496;SDS011;59317;53.218;5.730;2022-08-19T01:34:24;14.57;;;7.40;;
71496;SDS011;59317;53.218;5.730;2022-08-19T01:36:50;18.65;;;8.07;;
71496;SDS011;59317;53.218;5.730;2022-08-19T01:39:17;17.35;;;8.00;;
71496;SDS011;59317;53.218;5.730;2022-08-19T01:41:44;20.10;;;8.67;;
71496;SDS011;59317;53.218;5.730;2022-08-19T01:44:10;16.50;;;8.87;;
71496;SDS011;59317;53.218;5.730;2022-08-19T01:46:37;17.92;;;9.05;;
71496;SDS011;59317;53.218;5.730;2022-08-19T01:49:04;16.48;;;8.43;;
71496;SDS011;59317;53.218;5.730;2022-08-19T01:51:30;14.57;;;8.43;;
71496;SDS011;59317;53.218;5.730;2022-08-19T01:53:56;16.75;;;8.30;;
71496;SDS011;59317;53.218;5.730;2022-08-19T01:56:22;15.88;;;8.40;;
71496;SDS011;59317;53.218;5.730;2022-08-19T01:58:50;15.35;;;8.30;;
71496;SDS011;59317;53.218;5.730;2022-08-19T02:01:17;17.52;;;8.45;;
71496;SDS011;59317;53.218;5.730;2022-08-19T02:03:43;16.17;;;8.57;;
71496;SDS011;59317;53.218;5.730;2022-08-19T02:06:09;16.50;;;8.25;;
71496;SDS011;59317;53.218;5.730;2022-08-19T02:08:35;16.17;;;8.68;;
71496;SDS011;59317;53.218;5.730;2022-08-19T02:11:02;16.73;;;8.73;;
71496;SDS011;59317;53.218;5.730;2022-08-19T02:13:28;17.52;;;8.20;;
71496;SDS011;59317;53.218;5.730;2022-08-19T02:15:54;15.98;;;8.43;;
71496;SDS011;59317;53.218;5.730;2022-08-19T02:18:20;16.98;;;8.60;;
71496;SDS011;59317;53.218;5.730;2022-08-19T02:20:46;15.90;;;8.33;;
71496;SDS011;59317;53.218;5.730;2022-08-19T02:23:13;16.90;;;8.90;;
71496;SDS011;59317;53.218;5.730;2022-08-19T02:25:39;17.35;;;9.30;;
71496;SDS011;59317;53.218;5.730;2022-08-19T02:28:06;17.88;;;9.40;;
71496;SDS011;59317;53.218;5.730;2022-08-19T02:30:32;15.82;;;9.20;;
71496;SDS011;59317;53.218;5.730;2022-08-19T02:32:59;15.95;;;9.25;;
71496;SDS011;59317;53.218;5.730;2022-08-19T02:35:25;17.05;;;9.77;;
71496;SDS011;59317;53.218;5.730;2022-08-19T02:37:50;18.38;;;9.73;;
71496;SDS011;59317;53.218;5.730;2022-08-19T02:40:35;16.50;;;9.57;;
71496;SDS011;59317;53.218;5.730;2022-08-19T02:43:05;19.15;;;9.98;;
71496;SDS011;59317;53.218;5.730;2022-08-19T02:45:33;19.33;;;10.07;;
71496;SDS011;59317;53.218;5.730;2022-08-19T02:47:59;19.98;;;9.98;;
71496;SDS011;59317;53.218;5.730;2022-08-19T02:50:25;17.23;;;9.98;;
71496;SDS011;59317;53.218;5.730;2022-08-19T02:52:51;19.02;;;10.02;;
71496;SDS011;59317;53.218;5.730;2022-08-19T02:55:17;20.65;;;10.40;;
71496;SDS011;59317;53.218;5.730;2022-08-19T02:57:43;20.27;;;10.50;;
71496;SDS011;59317;53.218;5.730;2022-08-19T03:00:09;18.00;;;10.15;;
71496;SDS011;59317;53.218;5.730;2022-08-19T03:02:38;18.25;;;10.10;;
71496;SDS011;59317;53.218;5.730;2022-08-19T03:05:05;18.30;;;9.83;;
71496;SDS011;59317;53.218;5.730;2022-08-19T03:07:32;20.73;;;10.48;;
71496;SDS011;59317;53.218;5.730;2022-08-19T03:09:58;20.48;;;10.18;;
71496;SDS011;59317;53.218;5.730;2022-08-19T03:12:24;20.98;;;10.85;;
71496;SDS011;59317;53.218;5.730;2022-08-19T03:14:50;20.95;;;10.55;;
71496;SDS011;59317;53.218;5.730;2022-08-19T03:17:16;22.00;;;10.43;;
71496;SDS011;59317;53.218;5.730;2022-08-19T03:19:42;19.37;;;10.30;;
71496;SDS011;59317;53.218;5.730;2022-08-19T03:22:09;19.00;;;9.67;;
71496;SDS011;59317;53.218;5.730;2022-08-19T03:24:35;20.75;;;11.23;;
71496;SDS011;59317;53.218;5.730;2022-08-19T03:27:01;20.58;;;11.02;;
71496;SDS011;59317;53.218;5.730;2022-08-19T03:29:30;22.75;;;11.10;;
71496;SDS011;59317;53.218;5.730;2022-08-19T03:32:00;19.90;;;10.80;;
71496;SDS011;59317;53.218;5.730;2022-08-19T03:34:27;21.80;;;11.10;;
71496;SDS011;59317;53.218;5.730;2022-08-19T03:36:54;19.88;;;10.20;;
71496;SDS011;59317;53.218;5.730;2022-08-19T03:39:20;17.20;;;9.65;;
71496;SDS011;59317;53.218;5.730;2022-08-19T03:41:47;21.77;;;10.43;;
71496;SDS011;59317;53.218;5.730;2022-08-19T03:44:17;21.88;;;10.75;;
71496;SDS011;59317;53.218;5.730;2022-08-19T03:46:46;19.45;;;10.40;;
71496;SDS011;59317;53.218;5.730;2022-08-19T03:49:12;18.55;;;10.00;;
71496;SDS011;59317;53.218;5.730;2022-08-19T03:51:38;22.17;;;10.25;;
71496;SDS011;59317;53.218;5.730;2022-08-19T03:54:06;19.35;;;9.57;;
71496;SDS011;59317;53.218;5.730;2022-08-19T03:56:33;19.95;;;9.90;;
71496;SDS011;59317;53.218;5.730;2022-08-19T03:58:59;17.75;;;9.70;;
71496;SDS011;59317;53.218;5.730;2022-08-19T04:01:26;19.15;;;10.27;;
71496;SDS011;59317;53.218;5.730;2022-08-19T04:03:53;20.20;;;10.18;;
71496;SDS011;59317;53.218;5.730;2022-08-19T04:06:21;20.63;;;9.60;;
71496;SDS011;59317;53.218;5.730;2022-08-19T04:08:48;19.05;;;9.95;;
71496;SDS011;59317;53.218;5.730;2022-08-19T04:11:16;20.13;;;10.40;;
71496;SDS011;59317;53.218;5.730;2022-08-19T04:13:42;20.05;;;10.18;;
71496;SDS011;59317;53.218;5.730;2022-08-19T04:16:09;18.63;;;9.80;;
71496;SDS011;59317;53.218;5.730;2022-08-19T04:18:36;18.17;;;10.30;;
71496;SDS011;59317;53.218;5.730;2022-08-19T04:21:03;20.80;;;10.02;;
71496;SDS011;59317;53.218;5.730;2022-08-19T04:23:29;20.90;;;10.75;;
71496;SDS011;59317;53.218;5.730;2022-08-19T04:25:55;20.67;;;10.60;;
71496;SDS011;59317;53.218;5.730;2022-08-19T04:28:21;19.63;;;10.10;;
71496;SDS011;59317;53.218;5.730;2022-08-19T04:30:49;20.92;;;10.70;;
71496;SDS011;59317;53.218;5.730;2022-08-19T04:33:17;22.70;;;10.67;;
71496;SDS011;59317;53.218;5.730;2022-08-19T04:35:45;21.67;;;10.70;;
71496;SDS011;59317;53.218;5.730;2022-08-19T04:38:12;22.03;;;11.07;;
71496;SDS011;59317;53.218;5.730;2022-08-19T04:40:45;21.75;;;10.80;;
71496;SDS011;59317;53.218;5.730;2022-08-19T04:43:30;22.88;;;10.90;;
71496;SDS011;59317;53.218;5.730;2022-08-19T04:45:56;22.77;;;11.38;;
71496;SDS011;59317;53.218;5.730;2022-08-19T04:48:22;21.90;;;11.27;;
71496;SDS011;59317;53.218;5.730;2022-08-19T04:50:52;23.08;;;11.45;;
71496;SDS011;59317;53.218;5.730;2022-08-19T04:53:25;20.70;;;11.00;;
71496;SDS011;59317;53.218;5.730;2022-08-19T04:55:53;24.55;;;11.95;;
71496;SDS011;59317;53.218;5.730;2022-08-19T04:58:19;23.65;;;11.85;;
71496;SDS011;59317;53.218;5.730;2022-08-19T05:00:45;23.02;;;12.15;;
71496;SDS011;59317;53.218;5.730;2022-08-19T05:03:11;23.55;;;12.45;;
71496;SDS011;59317;53.218;5.730;2022-08-19T05:05:39;23.60;;;12.02;;
71496;SDS011;59317;53.218;5.730;2022-08-19T05:08:05;24.05;;;12.50;;
71496;SDS011;59317;53.218;5.730;2022-08-19T05:10:34;21.90;;;11.10;;
71496;SDS011;59317;53.218;5.730;2022-08-19T05:13:00;22.48;;;11.00;;
71496;SDS011;59317;53.218;5.730;2022-08-19T05:15:26;23.05;;;12.30;;
71496;SDS011;59317;53.218;5.730;2022-08-19T05:17:52;23.90;;;12.52;;
71496;SDS011;59317;53.218;5.730;2022-08-19T05:20:37;23.33;;;12.17;;
71496;SDS011;59317;53.218;5.730;2022-08-19T05:23:22;23.20;;;11.77;;
71496;SDS011;59317;53.218;5.730;2022-08-19T05:25:48;23.13;;;11.73;;
71496;SDS011;59317;53.218;5.730;2022-08-19T05:28:15;23.40;;;11.88;;
71496;SDS011;59317;53.218;5.730;2022-08-19T05:30:41;22.43;;;12.60;;
71496;SDS011;59317;53.218;5.730;2022-08-19T05:33:09;23.67;;;12.27;;
71496;SDS011;59317;53.218;5.730;2022-08-19T05:35:37;22.77;;;12.45;;
71496;SDS011;59317;53.218;5.730;2022-08-19T05:38:04;24.88;;;12.93;;
71496;SDS011;59317;53.218;5.730;2022-08-19T05:40:33;24.90;;;13.30;;
71496;SDS011;59317;53.218;5.730;2022-08-19T05:43:00;22.67;;;12.38;;
71496;SDS011;59317;53.218;5.730;2022-08-19T05:45:26;22.33;;;12.50;;
71496;SDS011;59317;53.218;5.730;2022-08-19T05:47:52;23.98;;;12.57;;
71496;SDS011;59317;53.218;5.730;2022-08-19T05:50:19;22.75;;;12.93;;
71496;SDS011;59317;53.218;5.730;2022-08-19T05:52:45;25.55;;;13.20;;
71496;SDS011;59317;53.218;5.730;2022-08-19T05:55:11;24.63;;;13.20;;
71496;SDS011;59317;53.218;5.730;2022-08-19T05:57:37;23.50;;;13.13;;
71496;SDS011;59317;53.218;5.730;2022-08-19T06:00:04;22.42;;;13.07;;
71496;SDS011;59317;53.218;5.730;2022-08-19T06:02:34;23.77;;;13.07;;
71496;SDS011;59317;53.218;5.730;2022-08-19T06:05:00;22.77;;;13.10;;
71496;SDS011;59317;53.218;5.730;2022-08-19T06:07:27;25.17;;;13.30;;
71496;SDS011;59317;53.218;5.730;2022-08-19T06:09:53;20.70;;;12.32;;
71496;SDS011;59317;53.218;5.730;2022-08-19T06:12:20;20.92;;;12.95;;
71496;SDS011;59317;53.218;5.730;2022-08-19T06:14:55;23.13;;;12.57;;
71496;SDS011;59317;53.218;5.730;2022-08-19T06:17:21;21.98;;;12.75;;
71496;SDS011;59317;53.218;5.730;2022-08-19T06:19:50;21.40;;;13.00;;
71496;SDS011;59317;53.218;5.730;2022-08-19T06:22:16;19.55;;;12.35;;
71496;SDS011;59317;53.218;5.730;2022-08-19T06:24:42;21.87;;;12.63;;
71496;SDS011;59317;53.218;5.730;2022-08-19T06:27:08;20.70;;;12.60;;
71496;SDS011;59317;53.218;5.730;2022-08-19T06:29:34;21.33;;;12.67;;
71496;SDS011;59317;53.218;5.730;2022-08-19T06:32:01;19.17;;;11.82;;
71496;SDS011;59317;53.218;5.730;2022-08-19T06:34:28;18.33;;;11.77;;
71496;SDS011;59317;53.218;5.730;2022-08-19T06:36:55;19.88;;;11.25;;
71496;SDS011;59317;53.218;5.730;2022-08-19T06:39:23;16.45;;;10.95;;
71496;SDS011;59317;53.218;5.730;2022-08-19T06:41:50;15.02;;;10.02;;
71496;SDS011;59317;53.218;5.730;2022-08-19T06:44:17;14.82;;;9.70;;
71496;SDS011;59317;53.218;5.730;2022-08-19T06:46:44;15.63;;;10.30;;
71496;SDS011;59317;53.218;5.730;2022-08-19T06:49:10;15.00;;;10.25;;
71496;SDS011;59317;53.218;5.730;2022-08-19T06:51:39;15.43;;;10.30;;
71496;SDS011;59317;53.218;5.730;2022-08-19T06:54:05;15.20;;;10.02;;
71496;SDS011;59317;53.218;5.730;2022-08-19T06:56:31;15.88;;;10.18;;
71496;SDS011;59317;53.218;5.730;2022-08-19T06:59:07;16.42;;;10.52;;
71496;SDS011;59317;53.218;5.730;2022-08-19T07:01:34;16.67;;;10.48;;
71496;SDS011;59317;53.218;5.730;2022-08-19T07:04:02;15.60;;;10.55;;
71496;SDS011;59317;53.218;5.730;2022-08-19T07:06:28;16.05;;;10.63;;
71496;SDS011;59317;53.218;5.730;2022-08-19T07:08:56;15.68;;;10.88;;
71496;SDS011;59317;53.218;5.730;2022-08-19T07:11:23;16.40;;;11.25;;
71496;SDS011;59317;53.218;5.730;2022-08-19T07:13:49;15.23;;;11.23;;
71496;SDS011;59317;53.218;5.730;2022-08-19T07:16:17;15.65;;;11.43;;
71496;SDS011;59317;53.218;5.730;2022-08-19T07:18:47;15.00;;;11.32;;
71496;SDS011;59317;53.218;5.730;2022-08-19T07:21:15;16.45;;;11.57;;
71496;SDS011;59317;53.218;5.730;2022-08-19T07:23:42;16.50;;;11.45;;
71496;SDS011;59317;53.218;5.730;2022-08-19T07:26:10;17.20;;;12.27;;
71496;SDS011;59317;53.218;5.730;2022-08-19T07:28:36;16.47;;;12.17;;
71496;SDS011;59317;53.218;5.730;2022-08-19T07:31:04;17.52;;;12.73;;
71496;SDS011;59317;53.218;5.730;2022-08-19T07:33:31;17.27;;;12.73;;
71496;SDS011;59317;53.218;5.730;2022-08-19T07:35:57;16.70;;;12.60;;
71496;SDS011;59317;53.218;5.730;2022-08-19T07:38:24;17.13;;;12.65;;
71496;SDS011;59317;53.218;5.730;2022-08-19T07:40:50;17.30;;;13.40;;
71496;SDS011;59317;53.218;5.730;2022-08-19T07:43:16;18.58;;;13.48;;
71496;SDS011;59317;53.218;5.730;2022-08-19T07:45:49;19.60;;;14.27;;
71496;SDS011;59317;53.218;5.730;2022-08-19T07:48:15;20.02;;;15.43;;
71496;SDS011;59317;53.218;5.730;2022-08-19T07:50:41;22.67;;;15.68;;
71496;SDS011;59317;53.218;5.730;2022-08-19T07:53:07;22.15;;;16.50;;
71496;SDS011;59317;53.218;5.730;2022-08-19T07:55:33;21.87;;;16.33;;
71496;SDS011;59317;53.218;5.730;2022-08-19T07:57:59;21.57;;;16.87;;
71496;SDS011;59317;53.218;5.730;2022-08-19T08:00:26;21.70;;;17.10;;
71496;SDS011;59317;53.218;5.730;2022-08-19T08:02:52;23.50;;;17.40;;
71496;SDS011;59317;53.218;5.730;2022-08-19T08:05:18;24.07;;;18.07;;
71496;SDS011;59317;53.218;5.730;2022-08-19T08:08:03;23.75;;;19.23;;
71496;SDS011;59317;53.218;5.730;2022-08-19T08:11:07;26.10;;;19.63;;
71496;SDS011;59317;53.218;5.730;2022-08-19T08:13:34;25.95;;;19.90;;
71496;SDS011;59317;53.218;5.730;2022-08-19T08:16:01;25.63;;;20.27;;
71496;SDS011;59317;53.218;5.730;2022-08-19T08:18:27;25.55;;;19.88;;
71496;SDS011;59317;53.218;5.730;2022-08-19T08:20:53;24.52;;;17.67;;
71496;SDS011;59317;53.218;5.730;2022-08-19T08:23:19;22.88;;;16.98;;
71496;SDS011;59317;53.218;5.730;2022-08-19T08:25:50;25.60;;;17.42;;
71496;SDS011;59317;53.218;5.730;2022-08-19T08:28:19;23.08;;;17.40;;
71496;SDS011;59317;53.218;5.730;2022-08-19T08:30:46;26.67;;;18.35;;
71496;SDS011;59317;53.218;5.730;2022-08-19T08:33:13;23.35;;;17.50;;
71496;SDS011;59317;53.218;5.730;2022-08-19T08:35:40;24.55;;;17.73;;
71496;SDS011;59317;53.218;5.730;2022-08-19T08:38:10;21.73;;;16.27;;
71496;SDS011;59317;53.218;5.730;2022-08-19T08:43:13;21.70;;;15.63;;
71496;SDS011;59317;53.218;5.730;2022-08-19T08:45:47;22.65;;;16.00;;
71496;SDS011;59317;53.218;5.730;2022-08-19T08:48:29;22.13;;;15.50;;
71496;SDS011;59317;53.218;5.730;2022-08-19T08:50:58;22.63;;;16.65;;
71496;SDS011;59317;53.218;5.730;2022-08-19T08:53:24;22.40;;;15.02;;
71496;SDS011;59317;53.218;5.730;2022-08-19T08:55:50;19.55;;;14.80;;
71496;SDS011;59317;53.218;5.730;2022-08-19T08:58:27;19.95;;;14.05;;
71496;SDS011;59317;53.218;5.730;2022-08-19T09:00:55;20.52;;;13.55;;
71496;SDS011;59317;53.218;5.730;2022-08-19T09:03:23;22.50;;;14.77;;
71496;SDS011;59317;53.218;5.730;2022-08-19T09:06:00;18.88;;;12.10;;
71496;SDS011;59317;53.218;5.730;2022-08-19T09:08:41;19.17;;;11.40;;
71496;SDS011;59317;53.218;5.730;2022-08-19T09:11:12;19.33;;;12.38;;
71496;SDS011;59317;53.218;5.730;2022-08-19T09:13:53;17.43;;;11.60;;
71496;SDS011;59317;53.218;5.730;2022-08-19T09:16:22;18.43;;;13.37;;
71496;SDS011;59317;53.218;5.730;2022-08-19T09:18:53;21.63;;;14.20;;
71496;SDS011;59317;53.218;5.730;2022-08-19T09:21:20;19.58;;;14.00;;
71496;SDS011;59317;53.218;5.730;2022-08-19T09:23:47;22.20;;;13.18;;
71496;SDS011;59317;53.218;5.730;2022-08-19T09:26:15;19.25;;;12.30;;
71496;SDS011;59317;53.218;5.730;2022-08-19T09:28:42;18.02;;;11.57;;
71496;SDS011;59317;53.218;5.730;2022-08-19T09:31:19;20.23;;;13.25;;
71496;SDS011;59317;53.218;5.730;2022-08-19T09:33:46;21.75;;;12.25;;
71496;SDS011;59317;53.218;5.730;2022-08-19T09:36:13;18.50;;;11.80;;
71496;SDS011;59317;53.218;5.730;2022-08-19T09:38:39;20.40;;;11.70;;
71496;SDS011;59317;53.218;5.730;2022-08-19T09:41:07;19.30;;;12.30;;
71496;SDS011;59317;53.218;5.730;2022-08-19T09:43:33;20.88;;;11.25;;
71496;SDS011;59317;53.218;5.730;2022-08-19T09:46:02;20.95;;;13.38;;
71496;SDS011;59317;53.218;5.730;2022-08-19T09:48:28;19.73;;;12.85;;
71496;SDS011;59317;53.218;5.730;2022-08-19T09:50:54;20.48;;;12.57;;
71496;SDS011;59317;53.218;5.730;2022-08-19T09:53:20;18.00;;;11.38;;
71496;SDS011;59317;53.218;5.730;2022-08-19T09:55:47;16.05;;;10.50;;
71496;SDS011;59317;53.218;5.730;2022-08-19T09:58:14;17.05;;;10.32;;
71496;SDS011;59317;53.218;5.730;2022-08-19T10:00:39;16.38;;;10.20;;
71496;SDS011;59317;53.218;5.730;2022-08-19T10:03:05;17.70;;;11.38;;
71496;SDS011;59317;53.218;5.730;2022-08-19T10:05:31;14.05;;;10.15;;
71496;SDS011;59317;53.218;5.730;2022-08-19T10:08:13;16.83;;;10.02;;
71496;SDS011;59317;53.218;5.730;2022-08-19T10:10:40;16.40;;;11.27;;
71496;SDS011;59317;53.218;5.730;2022-08-19T10:13:08;17.38;;;10.63;;
71496;SDS011;59317;53.218;5.730;2022-08-19T10:15:34;16.42;;;10.52;;
71496;SDS011;59317;53.218;5.730;2022-08-19T10:18:01;17.43;;;9.63;;
71496;SDS011;59317;53.218;5.730;2022-08-19T10:20:27;15.70;;;9.30;;
71496;SDS011;59317;53.218;5.730;2022-08-19T10:22:54;12.73;;;8.00;;
71496;SDS011;59317;53.218;5.730;2022-08-19T10:25:20;14.05;;;8.93;;
71496;SDS011;59317;53.218;5.730;2022-08-19T10:27:46;14.93;;;9.38;;
71496;SDS011;59317;53.218;5.730;2022-08-19T10:30:12;13.03;;;8.13;;
71496;SDS011;59317;53.218;5.730;2022-08-19T10:32:38;11.43;;;7.43;;
71496;SDS011;59317;53.218;5.730;2022-08-19T10:35:04;13.15;;;8.18;;
71496;SDS011;59317;53.218;5.730;2022-08-19T10:37:33;13.68;;;7.40;;
71496;SDS011;59317;53.218;5.730;2022-08-19T10:39:59;13.73;;;8.60;;
71496;SDS011;59317;53.218;5.730;2022-08-19T10:42:26;13.30;;;8.48;;
71496;SDS011;59317;53.218;5.730;2022-08-19T10:44:52;15.70;;;8.77;;
71496;SDS011;59317;53.218;5.730;2022-08-19T10:47:18;14.73;;;8.70;;
71496;SDS011;59317;53.218;5.730;2022-08-19T10:49:45;16.15;;;9.65;;
71496;SDS011;59317;53.218;5.730;2022-08-19T10:52:33;16.98;;;9.25;;
71496;SDS011;59317;53.218;5.730;2022-08-19T10:55:03;15.48;;;9.85;;
71496;SDS011;59317;53.218;5.730;2022-08-19T10:57:48;14.88;;;9.35;;
71496;SDS011;59317;53.218;5.730;2022-08-19T11:00:14;17.15;;;9.07;;
71496;SDS011;59317;53.218;5.730;2022-08-19T11:02:40;14.88;;;8.85;;
71496;SDS011;59317;53.218;5.730;2022-08-19T11:05:07;14.65;;;9.10;;
71496;SDS011;59317;53.218;5.730;2022-08-19T11:07:35;16.25;;;9.10;;
71496;SDS011;59317;53.218;5.730;2022-08-19T11:10:02;15.15;;;8.10;;
71496;SDS011;59317;53.218;5.730;2022-08-19T11:12:28;13.13;;;8.45;;
71496;SDS011;59317;53.218;5.730;2022-08-19T11:14:54;11.73;;;6.43;;
71496;SDS011;59317;53.218;5.730;2022-08-19T11:17:20;9.85;;;5.30;;
71496;SDS011;59317;53.218;5.730;2022-08-19T11:19:48;10.15;;;6.18;;
71496;SDS011;59317;53.218;5.730;2022-08-19T11:22:14;12.05;;;7.28;;
71496;SDS011;59317;53.218;5.730;2022-08-19T11:24:40;15.02;;;7.50;;
71496;SDS011;59317;53.218;5.730;2022-08-19T11:27:07;12.57;;;7.30;;
71496;SDS011;59317;53.218;5.730;2022-08-19T11:29:39;12.55;;;7.53;;
71496;SDS011;59317;53.218;5.730;2022-08-19T11:32:06;12.80;;;7.95;;
71496;SDS011;59317;53.218;5.730;2022-08-19T11:34:33;14.65;;;7.13;;
71496;SDS011;59317;53.218;5.730;2022-08-19T11:37:00;14.45;;;7.75;;
71496;SDS011;59317;53.218;5.730;2022-08-19T11:39:28;13.57;;;7.60;;
71496;SDS011;59317;53.218;5.730;2022-08-19T11:41:55;13.48;;;7.47;;
71496;SDS011;59317;53.218;5.730;2022-08-19T11:44:21;11.47;;;6.13;;
71496;SDS011;59317;53.218;5.730;2022-08-19T11:46:47;11.63;;;6.63;;
71496;SDS011;59317;53.218;5.730;2022-08-19T11:49:14;10.75;;;5.72;;
71496;SDS011;59317;53.218;5.730;2022-08-19T11:51:40;12.05;;;6.65;;
71496;SDS011;59317;53.218;5.730;2022-08-19T11:54:08;9.20;;;5.38;;
71496;SDS011;59317;53.218;5.730;2022-08-19T11:56:35;11.80;;;6.18;;
71496;SDS011;59317;53.218;5.730;2022-08-19T11:59:02;10.13;;;5.07;;
71496;SDS011;59317;53.218;5.730;2022-08-19T12:01:28;12.55;;;5.90;;
71496;SDS011;59317;53.218;5.730;2022-08-19T12:03:54;11.40;;;5.93;;
71496;SDS011;59317;53.218;5.730;2022-08-19T12:06:22;9.95;;;5.90;;
71496;SDS011;59317;53.218;5.730;2022-08-19T12:08:54;12.02;;;6.68;;
71496;SDS011;59317;53.218;5.730;2022-08-19T12:11:20;12.38;;;6.80;;
71496;SDS011;59317;53.218;5.730;2022-08-19T12:13:46;11.40;;;7.00;;
71496;SDS011;59317;53.218;5.730;2022-08-19T12:16:17;13.32;;;7.25;;
71496;SDS011;59317;53.218;5.730;2022-08-19T12:18:43;12.70;;;7.50;;
71496;SDS011;59317;53.218;5.730;2022-08-19T12:21:11;12.27;;;6.78;;
71496;SDS011;59317;53.218;5.730;2022-08-19T12:23:38;13.93;;;7.40;;
71496;SDS011;59317;53.218;5.730;2022-08-19T12:26:04;13.20;;;7.20;;
71496;SDS011;59317;53.218;5.730;2022-08-19T12:28:30;12.52;;;7.45;;
71496;SDS011;59317;53.218;5.730;2022-08-19T12:30:57;11.30;;;6.97;;
71496;SDS011;59317;53.218;5.730;2022-08-19T12:33:23;12.33;;;7.63;;
71496;SDS011;59317;53.218;5.730;2022-08-19T12:35:51;11.82;;;7.05;;
71496;SDS011;59317;53.218;5.730;2022-08-19T12:38:17;13.27;;;7.82;;
71496;SDS011;59317;53.218;5.730;2022-08-19T12:40:46;15.90;;;9.48;;
71496;SDS011;59317;53.218;5.730;2022-08-19T12:43:13;16.10;;;9.83;;
71496;SDS011;59317;53.218;5.730;2022-08-19T12:45:40;14.90;;;9.48;;
71496;SDS011;59317;53.218;5.730;2022-08-19T12:48:07;15.60;;;9.55;;
71496;SDS011;59317;53.218;5.730;2022-08-19T12:50:33;15.30;;;9.43;;
71496;SDS011;59317;53.218;5.730;2022-08-19T12:52:59;13.05;;;8.70;;
71496;SDS011;59317;53.218;5.730;2022-08-19T12:55:25;13.40;;;7.90;;
71496;SDS011;59317;53.218;5.730;2022-08-19T12:57:53;14.15;;;8.38;;
71496;SDS011;59317;53.218;5.730;2022-08-19T13:00:20;13.02;;;8.13;;
71496;SDS011;59317;53.218;5.730;2022-08-19T13:02:47;12.23;;;7.50;;
71496;SDS011;59317;53.218;5.730;2022-08-19T13:05:16;12.15;;;7.72;;
71496;SDS011;59317;53.218;5.730;2022-08-19T13:07:44;13.40;;;8.50;;
71496;SDS011;59317;53.218;5.730;2022-08-19T13:10:11;15.35;;;9.02;;
71496;SDS011;59317;53.218;5.730;2022-08-19T13:12:38;14.27;;;9.10;;
71496;SDS011;59317;53.218;5.730;2022-08-19T13:15:05;13.83;;;9.13;;
71496;SDS011;59317;53.218;5.730;2022-08-19T13:17:33;14.48;;;9.38;;
71496;SDS011;59317;53.218;5.730;2022-08-19T13:19:59;15.02;;;8.90;;
71496;SDS011;59317;53.218;5.730;2022-08-19T13:22:25;13.45;;;8.45;;
71496;SDS011;59317;53.218;5.730;2022-08-19T13:24:52;13.73;;;8.25;;
71496;SDS011;59317;53.218;5.730;2022-08-19T13:27:18;15.30;;;8.43;;
71496;SDS011;59317;53.218;5.730;2022-08-19T13:29:44;12.20;;;7.60;;
71496;SDS011;59317;53.218;5.730;2022-08-19T13:32:29;12.52;;;8.60;;
71496;SDS011;59317;53.218;5.730;2022-08-19T13:35:14;10.23;;;6.43;;
71496;SDS011;59317;53.218;5.730;2022-08-19T13:37:40;14.57;;;6.65;;
71496;SDS011;59317;53.218;5.730;2022-08-19T13:40:07;11.60;;;7.15;;
71496;SDS011;59317;53.218;5.730;2022-08-19T13:42:36;12.20;;;6.70;;
71496;SDS011;59317;53.218;5.730;2022-08-19T13:45:02;14.03;;;6.80;;
71496;SDS011;59317;53.218;5.730;2022-08-19T13:47:31;11.45;;;6.60;;
71496;SDS011;59317;53.218;5.730;2022-08-19T13:49:59;11.65;;;6.75;;
71496;SDS011;59317;53.218;5.730;2022-08-19T13:52:25;11.35;;;7.45;;
71496;SDS011;59317;53.218;5.730;2022-08-19T13:54:51;7.78;;;4.47;;
71496;SDS011;59317;53.218;5.730;2022-08-19T13:57:18;8.80;;;4.35;;
71496;SDS011;59317;53.218;5.730;2022-08-19T13:59:44;11.38;;;5.22;;
71496;SDS011;59317;53.218;5.730;2022-08-19T14:02:10;9.00;;;5.05;;
71496;SDS011;59317;53.218;5.730;2022-08-19T14:04:36;10.43;;;6.10;;
71496;SDS011;59317;53.218;5.730;2022-08-19T14:07:03;11.02;;;5.00;;
71496;SDS011;59317;53.218;5.730;2022-08-19T14:09:29;9.93;;;5.28;;
71496;SDS011;59317;53.218;5.730;2022-08-19T14:11:55;9.65;;;5.50;;
71496;SDS011;59317;53.218;5.730;2022-08-19T14:14:21;10.17;;;5.13;;
71496;SDS011;59317;53.218;5.730;2022-08-19T14:16:47;7.40;;;3.60;;
71496;SDS011;59317;53.218;5.730;2022-08-19T14:19:13;6.25;;;2.30;;
71496;SDS011;59317;53.218;5.730;2022-08-19T14:21:40;8.38;;;4.05;;
71496;SDS011;59317;53.218;5.730;2022-08-19T14:24:06;9.17;;;4.57;;
71496;SDS011;59317;53.218;5.730;2022-08-19T14:26:33;9.77;;;3.70;;
71496;SDS011;59317;53.218;5.730;2022-08-19T14:28:59;7.68;;;3.70;;
71496;SDS011;59317;53.218;5.730;2022-08-19T14:31:26;6.85;;;2.92;;
71496;SDS011;59317;53.218;5.730;2022-08-19T14:33:52;7.53;;;3.35;;